Houn Maru — JG5489 — position and weather

sailwx.info

Track history (hours):
 
Tides and Currents Weather Stations Pressure Air Temp Water Temp Dewpoint Dewpoint Depression Visibility Wind Speed Wind Dir Waves Ship Positions

Houn Maru

Last reported at 2015-Mar-03 18:29 UTC. Time now 2015-Mar-03 18:49 UTC.
Position N 34°23' E 135°13'.

Length 91 m; draft 5.9 m.

Type: Tanker. MMSI: 431101172.

Date/timePositionNaut miles runAvg speedWind from/ knotsBaromVisibWave heightAir tempDewpointWater temp
2015-Mar-03 18:29N 34°23' E 135°13'0 0.0
2015-Mar-03 17:29N 34°23' E 135°13'0 0.0
2015-Mar-03 16:23N 34°23' E 135°13'0 0.0
2015-Mar-03 15:23N 34°23' E 135°12'0 0.0
2015-Mar-03 14:29N 34°23' E 135°12'4 4.8
2015-Mar-03 13:33N 34°26' E 135°09'1111.0
2015-Mar-03 12:33N 34°36' E 135°02'7 0.3
2015-Mar-02 15:11N 34°36' E 134°54'610.2
2015-Mar-02 14:33N 34°37' E 135°01'1211.7
2015-Mar-02 13:33N 34°34' E 135°15'8 8.2
2015-Mar-02 12:33N 34°32' E 135°25'0 0.0
2015-Mar-02 04:33N 34°32' E 135°24'5 4.3
2015-Mar-02 03:27N 34°31' E 135°18'0 0.0
2015-Mar-02 02:15N 34°31' E 135°18'0 0.1
2015-Mar-02 01:33N 34°31' E 135°18'0 0.0
2015-Mar-02 00:33N 34°31' E 135°18'0 0.0
2015-Mar-01 23:21N 34°31' E 135°18'0 0.0
2015-Mar-01 22:33N 34°31' E 135°18'0 0.0
2015-Mar-01 21:33N 34°31' E 135°18'0 0.0
2015-Mar-01 20:27N 34°31' E 135°18'0 0.0
2015-Mar-01 19:33N 34°31' E 135°18'0 0.0
2015-Mar-01 18:33N 34°31' E 135°18'0 0.0
2015-Mar-01 17:33N 34°31' E 135°18'0 0.3
2015-Mar-01 16:33N 34°31' E 135°18'1211.7
2015-Mar-01 15:34N 34°35' E 135°04'4 0.1
2015-Feb-28 01:28N 34°37' E 135°01'1011.0
2015-Feb-28 00:33N 34°36' E 135°13'1111.2
2015-Feb-27 23:33N 34°35' E 135°27'  
2015-Feb-25 07:24N 34°35' E 135°27'4 4.7
2015-Feb-25 06:32N 34°36' E 135°22'1111.6
2015-Feb-25 05:33N 34°28' E 135°12'4 3.6
2015-Feb-25 04:31N 34°25' E 135°14'0 0.0
2015-Feb-25 00:12N 34°25' E 135°14'2 3.0
2015-Feb-24 23:29N 34°23' E 135°13'0 0.0
2015-Feb-24 22:32N 34°23' E 135°13'0 0.0
2015-Feb-24 21:17N 34°23' E 135°13'0 0.2
2015-Feb-24 20:33N 34°23' E 135°12'10 9.6
2015-Feb-24 19:33N 34°31' E 135°06'10 9.4
2015-Feb-24 18:32N 34°35' E 134°55'1 0.0
2015-Feb-23 07:32N 34°36' E 134°54'8 8.6
2015-Feb-23 06:33N 34°36' E 135°04'1111.3
2015-Feb-23 05:33N 34°26' E 135°10'4 0.7
2015-Feb-23 00:16N 34°25' E 135°14'2 1.2
2015-Feb-22 22:33N 34°23' E 135°13'0 0.0
2015-Feb-22 21:27N 34°23' E 135°13'0 0.0
2015-Feb-22 18:09N 34°23' E 135°13'0 0.0
2015-Feb-22 16:21N 34°23' E 135°13'0 0.0
2015-Feb-22 15:27N 34°23' E 135°13'0 0.1
2015-Feb-22 14:07N 34°23' E 135°13'5 8.8
2015-Feb-22 13:34N 34°27' E 135°09'1010.1
2015-Feb-22 12:34N 34°36' E 135°03'  
Track history (hours):
 
Tides and Currents Weather Stations Pressure Air Temp Water Temp Dewpoint Dewpoint Depression Visibility Wind Speed Wind Dir Waves Ship Positions

Houn Maru

Last reported at 2015-Mar-03 18:29 UTC. Time now 2015-Mar-03 18:49 UTC.
Position N 34°23' E 135°13'.

Length 91 m; draft 5.9 m.

Type: Tanker. MMSI: 431101172.

Date/timePositionNaut miles runAvg speedWind from/ knotsBaromVisibWave heightAir tempDewpointWater temp
2015-Mar-03 18:29N 34°23' E 135°13'0 0.0
2015-Mar-03 17:29N 34°23' E 135°13'0 0.0
2015-Mar-03 16:23N 34°23' E 135°13'0 0.0
2015-Mar-03 15:23N 34°23' E 135°12'0 0.0
2015-Mar-03 14:29N 34°23' E 135°12'4 4.8
2015-Mar-03 13:33N 34°26' E 135°09'1111.0
2015-Mar-03 12:33N 34°36' E 135°02'7 0.3
2015-Mar-02 15:11N 34°36' E 134°54'610.2
2015-Mar-02 14:33N 34°37' E 135°01'1211.7
2015-Mar-02 13:33N 34°34' E 135°15'8 8.2
2015-Mar-02 12:33N 34°32' E 135°25'0 0.0
2015-Mar-02 04:33N 34°32' E 135°24'5 4.3
2015-Mar-02 03:27N 34°31' E 135°18'0 0.0
2015-Mar-02 02:15N 34°31' E 135°18'0 0.1
2015-Mar-02 01:33N 34°31' E 135°18'0 0.0
2015-Mar-02 00:33N 34°31' E 135°18'0 0.0
2015-Mar-01 23:21N 34°31' E 135°18'0 0.0
2015-Mar-01 22:33N 34°31' E 135°18'0 0.0
2015-Mar-01 21:33N 34°31' E 135°18'0 0.0
2015-Mar-01 20:27N 34°31' E 135°18'0 0.0
2015-Mar-01 19:33N 34°31' E 135°18'0 0.0
2015-Mar-01 18:33N 34°31' E 135°18'0 0.0
2015-Mar-01 17:33N 34°31' E 135°18'0 0.3
2015-Mar-01 16:33N 34°31' E 135°18'1211.7
2015-Mar-01 15:34N 34°35' E 135°04'4 0.1
2015-Feb-28 01:28N 34°37' E 135°01'1011.0
2015-Feb-28 00:33N 34°36' E 135°13'1111.2
2015-Feb-27 23:33N 34°35' E 135°27'  
2015-Feb-25 07:24N 34°35' E 135°27'4 4.7
2015-Feb-25 06:32N 34°36' E 135°22'1111.6
2015-Feb-25 05:33N 34°28' E 135°12'4 3.6
2015-Feb-25 04:31N 34°25' E 135°14'0 0.0
2015-Feb-25 00:12N 34°25' E 135°14'2 3.0
2015-Feb-24 23:29N 34°23' E 135°13'0 0.0
2015-Feb-24 22:32N 34°23' E 135°13'0 0.0
2015-Feb-24 21:17N 34°23' E 135°13'0 0.2
2015-Feb-24 20:33N 34°23' E 135°12'10 9.6
2015-Feb-24 19:33N 34°31' E 135°06'10 9.4
2015-Feb-24 18:32N 34°35' E 134°55'1 0.0
2015-Feb-23 07:32N 34°36' E 134°54'8 8.6
2015-Feb-23 06:33N 34°36' E 135°04'1111.3
2015-Feb-23 05:33N 34°26' E 135°10'4 0.7
2015-Feb-23 00:16N 34°25' E 135°14'2 1.2
2015-Feb-22 22:33N 34°23' E 135°13'0 0.0
2015-Feb-22 21:27N 34°23' E 135°13'0 0.0
2015-Feb-22 18:09N 34°23' E 135°13'0 0.0
2015-Feb-22 16:21N 34°23' E 135°13'0 0.0
2015-Feb-22 15:27N 34°23' E 135°13'0 0.1
2015-Feb-22 14:07N 34°23' E 135°13'5 8.8
2015-Feb-22 13:34N 34°27' E 135°09'1010.1
2015-Feb-22 12:34N 34°36' E 135°03'  

Dump ship's entire track history